^^

Meteo Aereoporti Centro-Italia

 

 
LIRZ - Perugia S.Egidio (208 m.)
Dati ricevuti: 04/03/2024 21:50
Leggera pioggerella, Molto Nuvoloso
Leggera pioggerella, Molto Nuvoloso
 Vento da direzione variabile
Vento: direzione variabile 2 km/h
TEMPERATURA: 7°C
P.to di Rugiada: 7°C
Umidità: 100%
Pressione: 1007 hPa
Condizioni generali: Leggera pioggerella
Nuvole: Molto nuvoloso
Visibilità: 10 km
Dettagli Nuvole: Poco nuvoloso 457 m
Molto nuvoloso 823 m
2024/03/04 20:50 LIRZ 042050Z AUTO VRB01KT 9999 -DZ SCT015/// BKN027/// 07/07 Q1007 REDZ RERA
 
LIPY - Ancona Falconara (12 m.)
Dati ricevuti: 04/03/2024 21:50
Coperto
Coperto
 Vento da E
Vento: E 6 km/h
TEMPERATURA: 12°C
P.to di Rugiada: 9°C
Umidità: 82%
Pressione: 1007 hPa
Nuvole: Coperto
Visibilità: 10 km
Dettagli Nuvole: Coperto 2713 m
2024/03/04 20:50 LIPY 042050Z AUTO 08003KT 050V140 9999 OVC089/// 12/09 Q1007
 
LIPR - Rimini Miramare (12 m.)
Dati ricevuti: 04/03/2024 21:50
Poco nuvoloso
Poco nuvoloso
 Vento da NW
Vento: NW 7 km/h
TEMPERATURA: 10°C
Raffreddamento da Vento: 9°C
P.to di Rugiada: 10°C
Umidità: 100%
Pressione: 1009 hPa
Nuvole: Poco nuvoloso
Visibilità: 10 km
Dettagli Nuvole: Poco nuvoloso 762 m
Poco nuvoloso 2134 m
2024/03/04 20:50 LIPR 042050Z 32004KT 9999 SCT025 SCT070 10/10 Q1009
 
LIRF - Roma Fiumicino (2 m.)
Dati ricevuti: 04/03/2024 21:50
Pioggia debole, Molto Nuvoloso
Pioggia debole, Molto Nuvoloso
 Vento da direzione variabile
Vento: direzione variabile 2 km/h
TEMPERATURA: 9°C
P.to di Rugiada: 8°C
Umidità: 94%
Pressione: 1007 hPa
Condizioni generali: Pioggia debole
Nuvole: Molto nuvoloso
Visibilità: 10 km
Dettagli Nuvole: Qualche nuvola 305 m
Poco nuvoloso 914 m
Molto nuvoloso 1372 m
2024/03/04 20:50 LIRF 042050Z VRB01KT 9999 -RA FEW010 SCT030 BKN045 09/08 Q1007 NOSIG
 
LIRA - Roma Ciampino (129 m.)
Dati ricevuti: 04/03/2024 21:50
Pioggia, Molto Nuvoloso
Pioggia, Molto Nuvoloso
 Vento da NE
Vento: NE 6 km/h
TEMPERATURA: 8°C
P.to di Rugiada: 7°C
Umidità: 93%
Pressione: 1007 hPa
Condizioni generali: Pioggia
Nuvole: Molto nuvoloso
Visibilità: 10 km
Dettagli Nuvole: Poco nuvoloso 457 m
Molto nuvoloso 1219 m
2024/03/04 20:50 LIRA 042050Z 04003KT 9999 RA SCT015 BKN040 08/07 Q1007
 
LIRU - Roma Urbe (17 m.)
Dati ricevuti: 04/03/2024 16:50
Dati non aggiornati
Poco nuvoloso
Poco nuvoloso
 Vento da NNW
Vento: NNW 9 km/h
TEMPERATURA: 13°C
P.to di Rugiada: 5°C
Umidità: 59%
Pressione: 1005 hPa
Nuvole: Poco nuvoloso
Visibilità: 10 km
Dettagli Nuvole: Poco nuvoloso 1067 m
2024/03/04 15:50 LIRU 041550Z 34005KT 310V010 9999 SCT035 13/05 Q1005
 
LIVF - Frontone (570 m.)
Dati ricevuti: 04/03/2024 21:55
Poco nuvoloso
Poco nuvoloso
 Vento da NNW
Vento: NNW 11 km/h
TEMPERATURA: 8°C
Raffreddamento da Vento: 6°C
P.to di Rugiada: 8°C
Umidità: 100%
Pressione: 1006 hPa
Nuvole: Poco nuvoloso
Visibilità: 10 km
Dettagli Nuvole: Poco nuvoloso 305 m
Poco nuvoloso 457 m
2024/03/04 20:55 LIVF 042055Z 33006KT 9999 SCT010 SCT015 08/08 Q1006
 
LIRQ - Firenze Peretola (40 m.)
Dati ricevuti: 04/03/2024 21:50
Molto nuvoloso
Molto nuvoloso
 Vento da NW
Vento: NW 11 km/h
TEMPERATURA: 12°C
P.to di Rugiada: 8°C
Umidità: 77%
Pressione: 1009 hPa
Nuvole: Molto nuvoloso
Visibilità: 10 km
Dettagli Nuvole: Molto nuvoloso 1524 m
2024/03/04 20:50 LIRQ 042050Z 32006KT 9999 BKN050 12/08 Q1009
 
LIBP - Pescara (10 m.)
Dati ricevuti: 04/03/2024 21:50
Pioggia debole, Coperto
Pioggia debole, Coperto
 Vento da WSW
Vento: WSW 9 km/h
TEMPERATURA: 10°C
Raffreddamento da Vento: 9°C
P.to di Rugiada: 9°C
Umidità: 94%
Pressione: 1006 hPa
Condizioni generali: Pioggia debole
Nuvole: Coperto
Visibilità: 10 km
Dettagli Nuvole: Coperto 1189 m
2024/03/04 20:50 LIBP 042050Z AUTO 25005KT 220V290 9999 -RA OVC039/// 10/09 Q1006
 
LIRV - Viterbo (300 m.)
Dati ricevuti: 04/03/2024 18:55
Dati non aggiornati
Pioggia debole, Foschia, Molto Nuvoloso
Pioggia debole, Foschia, Molto Nuvoloso
 Vento da NNW
Vento: NNW 9 km/h
TEMPERATURA: 8°C
Raffreddamento da Vento: 6°C
P.to di Rugiada: 7°C
Umidità: 93%
Pressione: 1006 hPa
Condizioni generali: Pioggia debole, Foschia
Nuvole: Molto nuvoloso
Visibilità: 5 km
Dettagli Nuvole: Poco nuvoloso 488 m
Molto nuvoloso 732 m
2024/03/04 17:55 LIRV 041755Z 34005KT 5000 -RA BR SCT016 BKN024 08/07 Q1006
 
LIQN - Rieti (389 m.)
Dati ricevuti: 04/03/2024 17:50
Dati non aggiornati
Pioggia, Qualche nuvola
Pioggia, Qualche nuvola
 Vento da NW
Vento: NW 13 km/h
TEMPERATURA: 8°C
Raffreddamento da Vento: 6°C
P.to di Rugiada: 4°C
Umidità: 76%
Pressione: 1005 hPa
Condizioni generali: Pioggia
Nuvole: Qualche nuvola
Visibilità: 8 km
Dettagli Nuvole: Qualche nuvola 1219 m
2024/03/04 16:50 LIQN 041650Z 31007KT 8000 RA FEW040 08/04 Q1005
 
LIRG - Guidonia -RM- (88 m.)
Dati ricevuti: 04/03/2024 18:55
Dati non aggiornati
Qualche nuvola
Qualche nuvola
 Vento da NNW
Vento: NNW 9 km/h
TEMPERATURA: 11°C
P.to di Rugiada: 4°C
Umidità: 62%
Pressione: 1006 hPa
Nuvole: Qualche nuvola
Visibilità: 10 km
Dettagli Nuvole: Qualche nuvola 762 m
2024/03/04 17:55 LIRG 041755Z 33005KT 9999 FEW025 11/04 Q1006
 
LIRK - Terminillo -RI-(1874 m.)
Dati ricevuti: 04/03/2024 21:55

 Vento da E
Vento: E 52 km/h
TEMPERATURA: -2°C
Raffreddamento da Vento: -11°C
P.to di Rugiada: -3°C
Umidità: 93%
Pressione: 1007 hPa
2024/03/04 20:55 LIRK 042055Z AUTO 09028KT //// M02/M03 Q1007
 
LIPK - Forlì (27 m.)
Dati ricevuti: 04/03/2024 21:50
Poco nuvoloso
Poco nuvoloso
 Vento da WNW
Vento: WNW 9 km/h
TEMPERATURA: 10°C
Raffreddamento da Vento: 9°C
P.to di Rugiada: 8°C
Umidità: 88%
Pressione: 1009 hPa
Nuvole: Poco nuvoloso
Visibilità: 10 km
Dettagli Nuvole: Poco nuvoloso 1219 m
2024/03/04 20:50 LIPK 042050Z 30005KT 9999 SCT040 10/08 Q1009
 
LIRS - Grosseto (5 m.)
Dati ricevuti: 04/03/2024 21:55
Poco nuvoloso
Poco nuvoloso
 Vento da NNW
Vento: NNW 11 km/h
TEMPERATURA: 12°C
P.to di Rugiada: 10°C
Umidità: 88%
Pressione: 1008 hPa
Nuvole: Poco nuvoloso
Visibilità: 10 km
Dettagli Nuvole: Qualche nuvola 610 m
Poco nuvoloso 1829 m
2024/03/04 20:55 LIRS 042055Z 34006KT 9999 FEW020 SCT060 12/10 Q1008
 
LIRP - Pisa S.Giusto (2 m.)
Dati ricevuti: 04/03/2024 21:45
Molto nuvoloso
Molto nuvoloso
 Vento da direzione variabile
Vento: direzione variabile 2 km/h
TEMPERATURA: 11°C
P.to di Rugiada: 10°C
Umidità: 94%
Pressione: 1009 hPa
Nuvole: Molto nuvoloso
Visibilità: 10 km
Dettagli Nuvole: Molto nuvoloso 1829 m
2024/03/04 20:45 LIRP 042045Z VRB01KT 9999 BKN060 11/10 Q1009 NOSIG